createdAt,value
2023-05-19T00:04:58.189Z,2.90
2023-05-19T00:07:32.500Z,2.50
2023-05-19T00:10:04.057Z,3.10
2023-05-19T00:12:36.091Z,2.70
2023-05-19T00:15:14.569Z,2.70
2023-05-19T00:17:55.387Z,2.60
2023-05-19T00:20:26.125Z,2.80
2023-05-19T00:23:07.796Z,2.60
2023-05-19T00:25:40.691Z,2.50
2023-05-19T00:28:22.423Z,2.80
2023-05-19T00:30:56.677Z,2.90
2023-05-19T00:33:47.379Z,3.00
2023-05-19T00:36:23.485Z,2.50
2023-05-19T00:39:07.619Z,2.70
2023-05-19T00:41:39.122Z,3.00
2023-05-19T00:44:29.023Z,2.80
2023-05-19T00:47:02.261Z,2.50
2023-05-19T00:49:43.286Z,3.40
2023-05-19T00:52:16.998Z,2.80
2023-05-19T00:54:50.032Z,2.90
2023-05-19T00:57:33.493Z,2.40
2023-05-19T01:00:09.652Z,2.80
2023-05-19T01:02:40.716Z,2.50
2023-05-19T01:05:12.525Z,2.70
2023-05-19T01:07:47.166Z,2.70
2023-05-19T01:10:26.782Z,2.60
2023-05-19T01:13:03.203Z,2.50
2023-05-19T01:15:40.754Z,2.60
2023-05-19T01:18:27.268Z,2.70
2023-05-19T01:21:23.554Z,2.70
2023-05-19T01:24:03.811Z,2.90
2023-05-19T01:27:17.968Z,3.00
2023-05-19T01:33:04.723Z,2.50
2023-05-19T01:35:47.049Z,2.90
2023-05-19T01:38:41.124Z,2.70
2023-05-19T01:41:19.917Z,2.60
2023-05-19T01:44:10.942Z,2.70
2023-05-19T01:46:42.660Z,2.80
2023-05-19T01:49:14.776Z,3.30
2023-05-19T01:51:48.484Z,3.10
2023-05-19T01:54:30.500Z,3.00
2023-05-19T01:57:33.336Z,2.80
2023-05-19T02:00:24.374Z,2.70
2023-05-19T02:03:11.316Z,2.90
2023-05-19T02:05:59.462Z,3.10
2023-05-19T02:08:45.466Z,2.70
2023-05-19T02:11:24.249Z,2.70
2023-05-19T02:14:21.530Z,2.70
2023-05-19T02:17:14.176Z,2.70
2023-05-19T02:19:48.363Z,3.20
2023-05-19T02:22:30.094Z,2.90
2023-05-19T02:25:03.386Z,2.90
2023-05-19T02:27:45.013Z,2.40
2023-05-19T02:30:25.866Z,2.70
2023-05-19T02:33:16.544Z,3.20
2023-05-19T02:35:47.501Z,2.60
2023-05-19T02:38:38.223Z,2.60
2023-05-19T02:41:22.307Z,2.30
2023-05-19T02:44:01.988Z,2.30
2023-05-19T02:46:52.781Z,2.50
2023-05-19T02:49:23.343Z,2.90
2023-05-19T02:52:14.141Z,2.80
2023-05-19T02:54:47.357Z,2.90
2023-05-19T02:57:28.146Z,3.00
2023-05-19T03:00:13.149Z,2.60
2023-05-19T03:02:47.020Z,2.60
2023-05-19T03:05:18.484Z,2.90
2023-05-19T03:07:52.360Z,2.80
2023-05-19T03:10:23.021Z,3.10
2023-05-19T03:13:13.629Z,3.00
2023-05-19T03:15:45.155Z,2.70
2023-05-19T03:18:36.056Z,2.80
2023-05-19T03:21:19.185Z,2.80
2023-05-19T03:24:10.186Z,2.90
2023-05-19T03:27:00.871Z,2.50
2023-05-19T03:29:52.812Z,2.70
2023-05-19T03:32:43.880Z,3.00
2023-05-19T03:35:34.708Z,2.50
2023-05-19T03:38:05.373Z,3.20
2023-05-19T03:40:46.083Z,3.10
2023-05-19T03:43:36.849Z,2.60
2023-05-19T03:46:27.694Z,2.70
2023-05-19T03:49:24.333Z,2.90
2023-05-19T03:52:13.573Z,3.00
2023-05-19T03:54:58.743Z,2.70
2023-05-19T03:57:49.721Z,2.60
2023-05-19T04:00:20.882Z,2.80
2023-05-19T04:03:11.748Z,2.90
2023-05-19T04:05:44.518Z,2.70
2023-05-19T04:08:18.564Z,2.80
2023-05-19T04:10:52.630Z,3.00
2023-05-19T04:13:33.625Z,2.90
2023-05-19T04:16:09.958Z,3.10
2023-05-19T04:19:00.802Z,2.30
2023-05-19T04:21:51.509Z,2.70
2023-05-19T04:24:22.035Z,2.90
2023-05-19T04:26:56.271Z,2.60
2023-05-19T04:29:40.925Z,2.70
2023-05-19T04:32:31.710Z,2.80
2023-05-19T04:35:03.306Z,2.80
2023-05-19T04:37:40.614Z,3.00
2023-05-19T04:40:13.491Z,2.60
2023-05-19T04:42:49.920Z,3.00
2023-05-19T04:45:42.720Z,2.80
2023-05-19T04:48:33.599Z,2.70
2023-05-19T04:51:29.799Z,2.70
2023-05-19T04:54:19.746Z,2.90
2023-05-19T04:56:54.674Z,2.80
2023-05-19T04:59:46.359Z,2.70
2023-05-19T05:02:28.813Z,2.70
2023-05-19T05:05:19.742Z,4.30
2023-05-19T05:08:11.219Z,3.30
2023-05-19T05:10:44.752Z,2.70
2023-05-19T05:13:36.474Z,2.60
2023-05-19T05:16:29.798Z,2.60
2023-05-19T05:19:22.340Z,3.00
2023-05-19T05:21:58.680Z,2.90
2023-05-19T05:27:24.296Z,2.70
2023-05-19T05:29:59.264Z,2.70
2023-05-19T05:32:32.514Z,3.40
2023-05-19T05:35:15.187Z,3.00
2023-05-19T05:37:56.926Z,2.50
2023-05-19T05:40:30.318Z,2.90
2023-05-19T05:43:03.523Z,2.90
2023-05-19T05:45:39.328Z,2.60
2023-05-19T05:48:13.649Z,2.70
2023-05-19T05:51:00.224Z,2.90
2023-05-19T05:53:41.792Z,2.30
2023-05-19T05:56:17.507Z,3.00
2023-05-19T05:58:54.078Z,3.00
2023-05-19T06:01:44.762Z,2.80
2023-05-19T06:04:18.779Z,3.20
2023-05-19T06:06:49.535Z,3.20
2023-05-19T06:09:40.189Z,3.10
2023-05-19T06:12:12.149Z,2.60
2023-05-19T06:14:46.922Z,3.00
2023-05-19T06:17:49.209Z,3.30
2023-05-19T06:20:23.040Z,3.10
2023-05-19T06:22:54.141Z,2.70
2023-05-19T06:25:28.083Z,2.40
2023-05-19T06:28:09.026Z,2.80
2023-05-19T06:31:00.177Z,3.00
2023-05-19T06:33:51.080Z,2.90
2023-05-19T06:36:24.513Z,2.80
2023-05-19T06:38:55.609Z,2.80
2023-05-19T06:41:26.496Z,2.80
2023-05-19T06:43:56.918Z,2.70
2023-05-19T06:46:27.555Z,2.70
2023-05-19T06:48:58.242Z,2.90
2023-05-19T06:51:41.406Z,3.00
2023-05-19T06:54:32.078Z,2.70
2023-05-19T06:57:02.826Z,3.10
2023-05-19T06:59:33.438Z,3.00
2023-05-19T07:02:04.883Z,2.80
2023-05-19T07:04:37.215Z,2.60
2023-05-19T07:07:18.989Z,3.10
2023-05-19T07:10:11.114Z,2.70
2023-05-19T07:13:02.004Z,2.50
2023-05-19T07:15:45.862Z,2.80
2023-05-19T07:18:16.477Z,2.50
2023-05-19T07:20:50.339Z,2.70
2023-05-19T07:23:21.041Z,2.80
2023-05-19T07:25:54.901Z,2.80
2023-05-19T07:28:28.683Z,3.00
2023-05-19T07:30:59.198Z,2.40
2023-05-19T07:33:51.118Z,2.70
2023-05-19T07:36:25.925Z,2.90
2023-05-19T07:38:56.499Z,3.20
2023-05-19T07:41:30.044Z,2.80
2023-05-19T07:44:00.650Z,2.90
2023-05-19T07:46:31.201Z,2.70
2023-05-19T07:49:04.222Z,2.60
2023-05-19T07:51:46.269Z,2.40
2023-05-19T07:54:16.719Z,2.60
2023-05-19T07:56:48.178Z,3.10
2023-05-19T07:59:18.805Z,2.40
2023-05-19T08:01:52.228Z,2.20
2023-05-19T08:04:23.091Z,2.30
2023-05-19T08:06:56.162Z,2.50
2023-05-19T08:09:26.706Z,2.40
2023-05-19T08:11:57.905Z,2.90
2023-05-19T08:14:37.482Z,2.20
2023-05-19T08:17:07.968Z,2.50
2023-05-19T08:19:40.934Z,2.40
2023-05-19T08:22:11.616Z,2.40
2023-05-19T08:24:43.189Z,2.80
2023-05-19T08:27:13.828Z,2.30
2023-05-19T08:29:44.519Z,2.70
2023-05-19T08:32:15.191Z,2.60
2023-05-19T08:34:45.745Z,2.60
2023-05-19T08:37:18.726Z,2.30
2023-05-19T08:39:49.437Z,2.30
2023-05-19T08:42:20.014Z,2.20
2023-05-19T08:44:50.560Z,2.60
2023-05-19T08:47:22.817Z,2.30
2023-05-19T08:49:58.687Z,2.40
2023-05-19T08:52:36.383Z,2.60
2023-05-19T08:55:17.176Z,2.30
2023-05-19T08:57:47.785Z,2.30
2023-05-19T09:00:19.917Z,2.70
2023-05-19T09:03:01.046Z,2.40
2023-05-19T09:05:42.364Z,2.20
2023-05-19T09:08:12.922Z,2.20
2023-05-19T09:10:43.498Z,2.60
2023-05-19T09:13:14.010Z,2.30
2023-05-19T09:15:45.581Z,2.20
2023-05-19T09:18:16.632Z,2.60
2023-05-19T09:20:47.689Z,2.30
2023-05-19T09:23:19.051Z,2.70
2023-05-19T09:25:54.017Z,2.60
2023-05-19T09:28:29.534Z,2.70
2023-05-19T09:31:04.167Z,2.40
2023-05-19T09:33:36.795Z,2.50
2023-05-19T09:36:08.868Z,2.70
2023-05-19T09:38:40.369Z,3.00
2023-05-19T09:41:11.634Z,3.00
2023-05-19T09:43:42.174Z,2.50
2023-05-19T09:46:14.629Z,3.00
2023-05-19T09:48:45.382Z,2.80
2023-05-19T09:51:16.066Z,2.80
2023-05-19T09:53:49.315Z,2.70
2023-05-19T09:56:23.801Z,3.10
2023-05-19T09:58:54.556Z,2.90
2023-05-19T10:01:25.981Z,2.50
2023-05-19T10:03:57.010Z,2.40
2023-05-19T10:06:27.958Z,2.80
2023-05-19T10:11:28.889Z,3.00
2023-05-19T10:13:59.420Z,2.60
2023-05-19T10:16:31.398Z,2.80
2023-05-19T10:19:03.323Z,2.80
2023-05-19T10:21:33.873Z,2.80
2023-05-19T10:24:04.437Z,2.80
2023-05-19T10:26:35.290Z,2.80
2023-05-19T10:31:37.454Z,2.70
2023-05-19T10:34:28.352Z,3.30
2023-05-19T10:37:09.287Z,2.80
2023-05-19T10:42:18.252Z,2.80
2023-05-19T10:45:03.802Z,2.90
2023-05-19T10:47:35.054Z,2.90
2023-05-19T10:50:09.502Z,2.80
2023-05-19T10:52:41.442Z,2.80
2023-05-19T10:55:15.594Z,3.10
2023-05-19T10:57:57.604Z,2.60
2023-05-19T11:00:32.459Z,2.80
2023-05-19T11:03:16.551Z,2.70
2023-05-19T11:05:50.092Z,2.90
2023-05-19T11:08:36.412Z,2.80
2023-05-19T11:11:17.802Z,2.70
2023-05-19T11:13:55.114Z,2.90
2023-05-19T11:16:33.280Z,2.80
2023-05-19T11:19:03.999Z,2.80
2023-05-19T11:24:36.202Z,2.90
2023-05-19T11:27:26.050Z,3.10
2023-05-19T11:29:59.291Z,3.10
2023-05-19T11:32:31.607Z,2.80
2023-05-19T11:35:03.413Z,2.80
2023-05-19T11:37:35.958Z,3.50
2023-05-19T11:40:08.775Z,3.10
2023-05-19T11:42:39.284Z,2.70
2023-05-19T11:45:12.904Z,3.10
2023-05-19T11:48:00.893Z,2.90
2023-05-19T11:50:33.588Z,2.90
2023-05-19T11:53:04.119Z,2.60
2023-05-19T11:58:05.987Z,2.50
2023-05-19T12:00:46.049Z,3.20
2023-05-19T12:03:17.524Z,3.20
2023-05-19T12:05:50.702Z,2.70
2023-05-19T12:08:21.517Z,2.80
2023-05-19T12:10:53.993Z,2.60
2023-05-19T12:13:24.511Z,2.70
2023-05-19T12:15:56.106Z,2.60
2023-05-19T12:18:32.685Z,3.10
2023-05-19T12:21:03.255Z,3.00
2023-05-19T12:23:34.432Z,2.70
2023-05-19T12:26:05.252Z,2.90
2023-05-19T12:28:36.349Z,3.00
2023-05-19T12:31:07.039Z,2.50
2023-05-19T12:33:37.404Z,2.90
2023-05-19T12:36:10.662Z,3.10
2023-05-19T12:38:42.452Z,2.70
2023-05-19T12:41:15.104Z,2.70
2023-05-19T12:43:45.611Z,2.80
2023-05-19T12:46:17.386Z,2.90
2023-05-19T12:48:48.861Z,2.60
2023-05-19T12:51:22.691Z,2.70
2023-05-19T12:53:53.911Z,2.80
2023-05-19T12:56:27.062Z,2.70
2023-05-19T12:58:57.668Z,2.70
2023-05-19T13:01:30.695Z,2.70
2023-05-19T13:04:02.788Z,2.60
2023-05-19T13:06:38.343Z,2.90
2023-05-19T13:09:09.025Z,3.00
2023-05-19T13:11:40.437Z,2.50
2023-05-19T13:14:11.340Z,2.50
2023-05-19T13:16:42.628Z,2.80
2023-05-19T13:19:25.011Z,2.10
2023-05-19T13:21:56.039Z,3.00
2023-05-19T13:24:26.570Z,2.60
2023-05-19T13:26:56.933Z,2.30
2023-05-19T13:29:28.258Z,2.20
2023-05-19T13:32:01.129Z,2.80
2023-05-19T13:34:32.034Z,2.40
2023-05-19T13:37:02.577Z,2.20
2023-05-19T13:39:33.118Z,2.40
2023-05-19T13:42:04.847Z,2.40
2023-05-19T13:44:35.383Z,2.50
2023-05-19T13:47:06.086Z,2.30
2023-05-19T13:49:36.514Z,2.40
2023-05-19T13:52:08.013Z,2.70
2023-05-19T13:54:38.403Z,2.70
2023-05-19T13:57:09.010Z,2.70
2023-05-19T13:59:49.353Z,2.60
2023-05-19T14:02:28.138Z,2.40
2023-05-19T14:04:58.803Z,2.70
2023-05-19T14:07:29.317Z,2.30
2023-05-19T14:09:59.696Z,2.60
2023-05-19T14:12:43.156Z,2.30
2023-05-19T14:15:22.360Z,2.40
2023-05-19T14:17:53.438Z,2.50
2023-05-19T14:20:23.926Z,2.60
2023-05-19T14:22:55.464Z,2.60
2023-05-19T14:25:25.876Z,2.30
2023-05-19T14:27:56.274Z,2.50
2023-05-19T14:30:26.679Z,2.80
2023-05-19T14:32:57.170Z,2.50
2023-05-19T14:35:28.879Z,2.80
2023-05-19T14:37:59.182Z,2.50
2023-05-19T14:40:29.552Z,2.80
2023-05-19T14:43:00.560Z,3.10
2023-05-19T14:45:31.352Z,2.40
2023-05-19T14:48:01.920Z,2.10
2023-05-19T14:50:32.550Z,2.50
2023-05-19T14:53:03.324Z,2.40
2023-05-19T14:55:33.749Z,2.60
2023-05-19T14:58:10.200Z,2.60
2023-05-19T15:00:51.441Z,3.00
2023-05-19T15:03:23.321Z,2.60
2023-05-19T15:05:53.792Z,2.60
2023-05-19T15:08:24.528Z,2.40
2023-05-19T15:10:54.944Z,2.70
2023-05-19T15:13:26.435Z,2.50
2023-05-19T15:16:12.324Z,2.50
2023-05-19T15:18:47.024Z,2.80
2023-05-19T15:21:17.617Z,2.40
2023-05-19T15:23:48.193Z,2.50
2023-05-19T15:26:18.853Z,2.50
2023-05-19T15:28:49.254Z,2.60
2023-05-19T15:31:23.132Z,2.20
2023-05-19T15:33:53.777Z,3.00
2023-05-19T15:36:24.354Z,2.70
2023-05-19T15:38:54.734Z,2.70
2023-05-19T15:41:25.777Z,2.70
2023-05-19T15:46:25.172Z,2.50
2023-05-19T15:48:56.532Z,2.40
2023-05-19T15:51:27.708Z,2.80
2023-05-19T15:56:27.184Z,2.60
2023-05-19T15:58:57.792Z,2.70
2023-05-19T16:01:28.579Z,2.50
2023-05-19T16:04:00.513Z,2.80
2023-05-19T16:06:31.195Z,2.60
2023-05-19T16:09:01.760Z,3.00
2023-05-19T16:11:32.557Z,2.80
2023-05-19T16:14:03.000Z,2.80
2023-05-19T16:16:33.532Z,2.80
2023-05-19T16:19:04.121Z,2.50
2023-05-19T16:21:34.653Z,2.60
2023-05-19T16:24:05.285Z,2.40
2023-05-19T16:26:35.680Z,2.90
2023-05-19T16:29:06.160Z,2.90
2023-05-19T16:31:36.698Z,2.40
2023-05-19T16:34:07.248Z,2.80
2023-05-19T16:36:37.696Z,2.70
2023-05-19T16:39:08.398Z,3.00
2023-05-19T16:41:41.583Z,2.70
2023-05-19T16:44:14.496Z,2.70
2023-05-19T16:46:45.208Z,2.80
2023-05-19T16:49:15.762Z,3.00
2023-05-19T16:51:49.118Z,3.20
2023-05-19T16:54:19.633Z,3.00
2023-05-19T16:56:50.866Z,2.60
2023-05-19T17:01:50.409Z,2.50
2023-05-19T17:04:21.042Z,3.20
2023-05-19T17:06:51.566Z,2.50
2023-05-19T17:09:25.366Z,2.90
2023-05-19T17:11:56.333Z,3.30
2023-05-19T17:14:26.863Z,3.00
2023-05-19T17:16:57.493Z,4.70
2023-05-19T17:19:28.044Z,3.10
2023-05-19T17:21:58.577Z,3.00
2023-05-19T17:24:29.551Z,3.60
2023-05-19T17:26:59.968Z,5.00
2023-05-19T17:29:30.748Z,3.60
2023-05-19T17:32:01.321Z,3.60
2023-05-19T17:34:31.788Z,3.60
2023-05-19T17:37:02.485Z,3.20
2023-05-19T17:39:33.186Z,2.80
2023-05-19T17:42:03.722Z,3.10
2023-05-19T17:44:34.166Z,3.20
2023-05-19T17:47:05.240Z,2.60
2023-05-19T17:49:35.762Z,2.80
2023-05-19T17:52:07.468Z,2.90
2023-05-19T17:54:38.844Z,3.00
2023-05-19T17:57:16.874Z,3.10
2023-05-19T17:59:48.040Z,3.40
2023-05-19T18:04:50.091Z,5.20
2023-05-19T18:07:20.922Z,4.30
2023-05-19T18:09:56.290Z,4.00
2023-05-19T18:12:26.742Z,3.30
2023-05-19T18:14:57.242Z,3.20
2023-05-19T18:17:27.898Z,3.10
2023-05-19T18:19:58.341Z,3.30
2023-05-19T18:22:28.885Z,3.30
2023-05-19T18:24:59.347Z,3.90
2023-05-19T18:27:31.372Z,3.00
2023-05-19T18:30:01.984Z,3.10
2023-05-19T18:32:32.400Z,3.40
2023-05-19T18:35:03.057Z,3.10
2023-05-19T18:37:33.474Z,3.20
2023-05-19T18:40:04.089Z,3.00
2023-05-19T18:42:34.629Z,3.30
2023-05-19T18:45:06.288Z,4.00
2023-05-19T18:47:36.846Z,3.40
2023-05-19T18:50:09.330Z,3.30
2023-05-19T18:52:39.786Z,3.20
2023-05-19T18:55:11.556Z,3.50
2023-05-19T18:57:42.066Z,3.80
2023-05-19T19:00:14.675Z,3.40
2023-05-19T19:02:45.138Z,3.40
2023-05-19T19:05:15.719Z,3.70
2023-05-19T19:07:56.344Z,3.10
2023-05-19T19:10:27.059Z,2.80
2023-05-19T19:12:57.948Z,3.30
2023-05-19T19:15:28.660Z,3.00
2023-05-19T19:17:59.134Z,3.40
2023-05-19T19:20:29.813Z,3.50
2023-05-19T19:23:06.403Z,3.40
2023-05-19T19:25:37.601Z,3.00
2023-05-19T19:28:08.202Z,2.90
2023-05-19T19:30:49.986Z,3.30
2023-05-19T19:33:20.479Z,3.00
2023-05-19T19:35:51.053Z,3.00
2023-05-19T19:38:21.721Z,3.30
2023-05-19T19:40:54.533Z,3.40
2023-05-19T19:43:35.561Z,3.20
2023-05-19T19:46:09.364Z,3.50
2023-05-19T19:48:42.382Z,3.10
2023-05-19T19:51:12.992Z,3.30
2023-05-19T19:53:46.536Z,3.20
2023-05-19T19:56:17.057Z,4.60
2023-05-19T19:58:47.724Z,3.50
2023-05-19T20:01:20.269Z,3.40
2023-05-19T20:03:51.003Z,2.90
2023-05-19T20:06:29.247Z,4.10
2023-05-19T20:08:59.707Z,3.60
2023-05-19T20:11:30.120Z,3.30
2023-05-19T20:14:00.764Z,3.30
2023-05-19T20:16:33.867Z,3.50
2023-05-19T20:19:09.158Z,3.40
2023-05-19T20:21:40.125Z,3.90
2023-05-19T20:24:11.049Z,3.40
2023-05-19T20:26:41.741Z,3.20
2023-05-19T20:29:12.442Z,3.60
2023-05-19T20:31:43.069Z,3.70
2023-05-19T20:34:16.068Z,3.60
2023-05-19T20:36:48.996Z,3.50
2023-05-19T20:39:19.520Z,3.30
2023-05-19T20:41:49.918Z,4.20
2023-05-19T20:44:25.828Z,3.70
2023-05-19T20:46:58.759Z,3.40
2023-05-19T20:49:29.390Z,3.90
2023-05-19T20:52:00.631Z,3.70
2023-05-19T20:54:31.078Z,3.90
2023-05-19T20:57:06.424Z,4.60
2023-05-19T20:59:57.084Z,4.10
2023-05-19T21:02:27.641Z,4.70
2023-05-19T21:04:58.211Z,3.80
2023-05-19T21:07:31.592Z,4.60
2023-05-19T21:10:02.108Z,3.90
2023-05-19T21:12:35.469Z,3.80
2023-05-19T21:15:07.845Z,4.20
2023-05-19T21:17:38.333Z,6.00
2023-05-19T21:20:11.510Z,6.80
2023-05-19T21:22:49.419Z,4.50
2023-05-19T21:25:19.913Z,3.10
2023-05-19T21:27:52.967Z,4.40
2023-05-19T21:30:24.002Z,5.60
2023-05-19T21:32:54.532Z,4.60
2023-05-19T21:35:25.008Z,3.50
2023-05-19T21:38:00.669Z,3.60
2023-05-19T21:40:40.227Z,3.40
2023-05-19T21:43:11.058Z,3.50
2023-05-19T21:45:44.244Z,3.70
2023-05-19T21:48:14.797Z,4.60
2023-05-19T21:50:45.407Z,5.40
2023-05-19T21:53:16.163Z,4.70
2023-05-19T21:55:49.899Z,3.90
2023-05-19T21:58:20.517Z,5.20
2023-05-19T22:00:56.002Z,7.60
2023-05-19T22:03:26.768Z,7.80
2023-05-19T22:05:57.837Z,5.70
2023-05-19T22:08:28.400Z,4.40
2023-05-19T22:10:59.108Z,3.70
2023-05-19T22:13:30.235Z,3.10
2023-05-19T22:16:00.725Z,3.50
2023-05-19T22:18:31.462Z,3.50
2023-05-19T22:21:02.179Z,4.30
2023-05-19T22:23:36.690Z,4.60
2023-05-19T22:26:09.451Z,4.00
2023-05-19T22:28:40.051Z,3.80
2023-05-19T22:31:13.973Z,3.60
2023-05-19T22:33:58.290Z,4.20
2023-05-19T22:36:29.153Z,4.00
2023-05-19T22:38:59.747Z,4.00
2023-05-19T22:41:30.327Z,3.60
2023-05-19T22:44:00.767Z,4.50
2023-05-19T22:46:35.418Z,3.60
2023-05-19T22:49:06.105Z,3.70
2023-05-19T22:51:36.548Z,3.90
2023-05-19T22:54:07.832Z,3.60
2023-05-19T22:56:38.338Z,3.50
2023-05-19T22:59:09.020Z,3.90
2023-05-19T23:01:39.812Z,3.60
2023-05-19T23:04:21.942Z,4.30
2023-05-19T23:06:53.135Z,3.50
2023-05-19T23:09:23.778Z,3.20
2023-05-19T23:11:56.505Z,3.80
2023-05-19T23:14:27.150Z,3.70
2023-05-19T23:16:57.760Z,3.80
2023-05-19T23:19:29.139Z,3.30
2023-05-19T23:22:02.430Z,3.50
2023-05-19T23:24:35.428Z,3.30
2023-05-19T23:27:06.868Z,3.80
2023-05-19T23:32:07.405Z,3.00
2023-05-19T23:34:37.877Z,3.30
2023-05-19T23:37:18.657Z,3.80
2023-05-19T23:39:49.097Z,3.60
2023-05-19T23:42:22.092Z,3.30
2023-05-19T23:44:59.815Z,3.40
2023-05-19T23:47:32.786Z,3.60
2023-05-19T23:50:03.274Z,3.90
2023-05-19T23:52:33.783Z,3.70
2023-05-19T23:55:04.474Z,4.30
2023-05-19T23:57:35.065Z,3.50
